Time;durP1;ratioP1;P1;durP2;ratioP2;P2;SDS_P1;SDS_P2;PMS_P1;PMS_P2;Temp;Humidity;BMP_temperature;BMP_pressure;BME280_temperature;BME280_humidity;BME280_pressure;Samples;Min_cycle;Max_cycle;Signal;HPM_P1;HPM_P2
2021/03/31 00:00:50;;;;;;;0.20;0.20;;;9.90;99.90;;;;;;20826978;22;20310;-72
2021/03/31 00:10:54;;;;;;;0.87;0.30;;;10.20;99.90;;;;;;20744370;28;20289;-71
2021/03/31 00:20:57;;;;;;;0.70;0.27;;;10.10;99.90;;;;;;20741088;28;20326;-72
2021/03/31 00:31:00;;;;;;;3.10;0.80;;;9.90;99.90;;;;;;20743497;28;20277;-71
2021/03/31 00:41:05;;;;;;;1.90;0.57;;;9.90;99.90;;;;;;20820307;28;20222;-72
2021/03/31 00:51:08;;;;;;;0.43;0.43;;;9.90;99.90;;;;;;20823569;28;20198;-71
2021/03/31 01:01:11;;;;;;;0.20;0.10;;;9.60;99.90;;;;;;20722974;28;20285;-72
2021/03/31 01:11:31;;;;;;;0.30;0.27;;;9.60;99.90;;;;;;20740067;28;20690;-72
2021/03/31 01:22:20;;;;;;;0.20;0.20;;;9.80;99.90;;;;;;20725925;28;20246;-72
2021/03/31 01:32:59;;;;;;;0.27;0.27;;;10.20;99.90;;;;;;20674055;28;20222;-72
2021/03/31 01:43:07;;;;;;;0.70;0.70;;;10.10;99.90;;;;;;20737805;28;20315;-72
2021/03/31 01:53:12;;;;;;;0.20;0.10;;;10.10;99.90;;;;;;20736458;28;20191;-71
2021/03/31 02:03:18;;;;;;;0.47;0.20;;;10.10;99.90;;;;;;20736501;28;20652;-73
2021/03/31 02:13:21;;;;;;;2.00;1.17;;;9.90;99.90;;;;;;20717513;28;20272;-72
2021/03/31 02:23:27;;;;;;;0.20;0.17;;;9.90;99.90;;;;;;20716335;28;20227;-73
2021/03/31 02:33:31;;;;;;;3.40;1.27;;;10.00;99.90;;;;;;20750945;28;20293;-73
2021/03/31 02:43:36;;;;;;;0.57;0.47;;;10.20;99.90;;;;;;20814350;28;20236;-72
2021/03/31 02:53:42;;;;;;;3.03;0.93;;;10.10;99.90;;;;;;20814491;28;20194;-73
2021/03/31 03:03:46;;;;;;;0.40;0.40;;;9.70;99.90;;;;;;20814207;28;20613;-73
2021/03/31 03:13:49;;;;;;;9.70;1.30;;;9.90;99.90;;;;;;20797268;28;20547;-72
2021/03/31 03:23:55;;;;;;;2.30;0.83;;;10.10;99.90;;;;;;20782463;28;20305;-72
2021/03/31 03:34:00;;;;;;;1.13;0.47;;;10.10;99.90;;;;;;20751900;28;20206;-71
2021/03/31 03:44:04;;;;;;;3.83;0.70;;;10.00;99.90;;;;;;20809081;28;20257;-72
2021/03/31 03:54:10;;;;;;;0.30;0.20;;;9.60;99.90;;;;;;20800252;28;20226;-73
2021/03/31 04:04:13;;;;;;;0.40;0.40;;;9.50;99.90;;;;;;20808884;28;20240;-72
2021/03/31 04:14:16;;;;;;;1.40;0.63;;;9.40;99.90;;;;;;20807972;28;20194;-71
2021/03/31 04:24:19;;;;;;;0.67;0.30;;;9.30;99.90;;;;;;20790664;28;20277;-72
2021/03/31 04:34:22;;;;;;;0.60;0.60;;;9.20;99.90;;;;;;20764604;28;20206;-71
2021/03/31 04:44:26;;;;;;;0.63;0.60;;;9.10;99.90;;;;;;20823402;28;20737;-72
2021/03/31 04:54:28;;;;;;;0.77;0.50;;;9.20;99.90;;;;;;20793289;28;20277;-72
2021/03/31 05:04:32;;;;;;;0.20;0.10;;;9.00;99.90;;;;;;20739727;28;20234;-73
2021/03/31 05:14:37;;;;;;;0.30;0.30;;;8.70;99.90;;;;;;20739193;28;20198;-72
2021/03/31 05:24:41;;;;;;;0.50;0.50;;;8.80;99.90;;;;;;20737666;28;20763;-72
2021/03/31 05:34:43;;;;;;;2.93;0.83;;;8.80;99.90;;;;;;20736178;28;20606;-74
2021/03/31 05:44:47;;;;;;;0.40;0.40;;;8.90;99.90;;;;;;20736134;28;20246;-73
2021/03/31 05:54:49;;;;;;;0.40;0.40;;;9.20;99.90;;;;;;20735941;28;20261;-73
2021/03/31 06:04:53;;;;;;;1.13;1.03;;;9.20;99.90;;;;;;20778833;28;20718;-73
2021/03/31 06:14:55;;;;;;;0.93;0.50;;;9.60;99.90;;;;;;20815400;28;20194;-73
2021/03/31 06:25:09;;;;;;;1.37;1.03;;;9.80;99.90;;;;;;20815968;28;20232;-72
2021/03/31 06:35:19;;;;;;;0.63;0.43;;;10.20;99.90;;;;;;20815253;28;20194;-72
2021/03/31 06:45:37;;;;;;;1.80;1.00;;;10.90;99.90;;;;;;20813208;28;20394;-73
2021/03/31 06:55:40;;;;;;;1.17;1.07;;;11.60;99.90;;;;;;20808345;28;20198;-72
2021/03/31 07:05:43;;;;;;;2.07;0.90;;;12.10;99.90;;;;;;20804393;28;20265;-73
2021/03/31 07:15:46;;;;;;;1.27;1.17;;;12.80;99.90;;;;;;20809157;28;20222;-73
2021/03/31 07:25:50;;;;;;;1.47;1.07;;;13.20;99.90;;;;;;20766210;28;20322;-71
2021/03/31 07:35:53;;;;;;;0.87;0.53;;;13.80;99.90;;;;;;20745637;28;20699;-74
2021/03/31 07:46:01;;;;;;;8.30;1.03;;;14.10;99.90;;;;;;20724253;28;20223;-72
2021/03/31 07:56:13;;;;;;;3.97;1.10;;;14.40;99.90;;;;;;20694538;28;20199;-72
2021/03/31 08:06:22;;;;;;;1.00;0.90;;;14.50;99.90;;;;;;20733677;28;20234;-71
2021/03/31 08:16:26;;;;;;;0.60;0.57;;;14.60;99.90;;;;;;20736508;28;20308;-71
2021/03/31 08:26:35;;;;;;;1.33;1.03;;;14.80;99.90;;;;;;20764216;28;20698;-71
2021/03/31 08:36:40;;;;;;;1.57;1.07;;;15.20;99.90;;;;;;20739409;28;20198;-70
2021/03/31 08:46:44;;;;;;;1.43;0.67;;;15.10;99.90;;;;;;20739352;28;20894;-71
2021/03/31 08:56:48;;;;;;;4.17;1.23;;;15.50;99.90;;;;;;20738911;28;20203;-72
2021/03/31 09:06:52;;;;;;;0.93;0.83;;;15.50;99.90;;;;;;20677662;28;20266;-70
2021/03/31 09:16:57;;;;;;;0.97;0.97;;;15.80;99.90;;;;;;20638530;28;20195;-70
2021/03/31 09:27:22;;;;;;;1.20;0.97;;;15.90;99.90;;;;;;20713650;28;20561;-70
2021/03/31 09:37:25;;;;;;;5.63;2.30;;;15.60;99.90;;;;;;20733652;28;20246;-70
2021/03/31 09:47:34;;;;;;;0.57;0.57;;;15.80;99.90;;;;;;20732325;28;20233;-68
2021/03/31 09:57:40;;;;;;;0.67;0.67;;;15.90;99.90;;;;;;20731162;28;20595;-66
2021/03/31 10:07:55;;;;;;;0.73;0.73;;;16.40;99.90;;;;;;20731653;28;20235;-69
2021/03/31 10:17:58;;;;;;;0.50;0.50;;;16.30;99.90;;;;;;20729691;28;20282;-70
2021/03/31 10:28:01;;;;;;;1.40;0.47;;;16.00;99.90;;;;;;20793950;28;20225;-67
2021/03/31 10:38:32;;;;;;;0.80;0.60;;;16.40;99.90;;;;;;20809954;28;20658;-68
2021/03/31 10:48:41;;;;;;;1.47;0.80;;;16.70;99.90;;;;;;20795784;28;20770;-69
2021/03/31 10:58:44;;;;;;;1.73;1.20;;;16.60;99.90;;;;;;20726891;28;20536;-71
2021/03/31 11:08:48;;;;;;;1.27;1.03;;;17.50;99.90;;;;;;20724624;28;20258;-70
2021/03/31 11:18:58;;;;;;;13.10;1.27;;;17.80;99.90;;;;;;20742932;28;20277;-70
2021/03/31 11:29:02;;;;;;;1.07;0.90;;;18.90;99.90;;;;;;20803031;28;20253;-70
2021/03/31 11:39:06;;;;;;;0.60;0.60;;;19.70;99.90;;;;;;20740850;28;20286;-67
2021/03/31 11:49:09;;;;;;;1.57;1.10;;;20.20;99.90;;;;;;20741118;28;20223;-68
2021/03/31 11:59:12;;;;;;;3.95;1.55;;;20.60;99.90;;;;;;20740432;28;20539;-68
2021/03/31 12:09:17;;;;;;;3.73;1.93;;;20.60;99.90;;;;;;20722591;28;20230;-68
2021/03/31 12:19:19;;;;;;;0.20;0.10;;;20.30;99.90;;;;;;20721645;28;20194;-69
2021/03/31 12:29:26;;;;;;;6.87;1.13;;;19.90;99.90;;;;;;20814622;28;20226;-68
2021/03/31 12:39:29;;;;;;;1.47;0.57;;;19.70;99.90;;;;;;20820216;28;20255;-69
2021/03/31 12:49:33;;;;;;;0.83;0.67;;;21.10;99.90;;;;;;20766994;28;20600;-69
2021/03/31 12:59:35;;;;;;;1.10;0.43;;;22.50;99.90;;;;;;20735405;28;20198;-69
2021/03/31 13:10:00;;;;;;;0.40;0.40;;;22.50;99.90;;;;;;20719097;28;20773;-69
2021/03/31 13:31:06;;;;;;;1.47;0.63;;;23.20;99.90;;;;;;20815352;28;20206;-68
2021/03/31 13:41:09;;;;;;;1.43;0.97;;;23.90;99.90;;;;;;20797314;28;20674;-70
2021/03/31 13:51:13;;;;;;;0.40;0.40;;;23.70;99.90;;;;;;20796963;28;20194;-69
2021/03/31 14:01:24;;;;;;;0.60;0.38;;;23.60;99.90;;;;;;20797454;28;20710;-69
2021/03/31 14:11:50;;;;;;;0.40;0.22;;;25.20;99.90;;;;;;20730748;28;20206;-69
2021/03/31 14:22:13;;;;;;;1.38;1.05;;;25.20;99.90;;;;;;20746977;28;20569;-70
2021/03/31 14:32:17;;;;;;;0.95;0.80;;;25.70;99.90;;;;;;20792358;28;20208;-69
2021/03/31 14:42:40;;;;;;;1.85;0.85;;;25.80;99.90;;;;;;20809356;28;20253;-70
2021/03/31 15:03:25;;;;;;;1.27;0.60;;;25.20;99.90;;;;;;20679382;28;20235;-68
2021/03/31 15:13:29;;;;;;;1.10;0.90;;;26.10;99.90;;;;;;20646876;28;20199;-67
2021/03/31 15:23:44;;;;;;;1.70;0.60;;;26.00;99.90;;;;;;20676068;28;20297;-70
2021/03/31 15:33:47;;;;;;;0.55;0.55;;;24.80;99.90;;;;;;20728588;28;20215;-69
2021/03/31 15:43:55;;;;;;;20.05;1.45;;;24.80;99.90;;;;;;20710779;28;20230;-66
2021/03/31 15:54:05;;;;;;;2.00;1.35;;;24.10;99.90;;;;;;20721719;28;20199;-67
2021/03/31 16:04:18;;;;;;;0.63;0.63;;;23.40;99.90;;;;;;20762748;28;20261;-69
2021/03/31 16:14:26;;;;;;;0.67;0.60;;;20.20;99.90;;;;;;20726793;28;20198;-69
2021/03/31 16:24:33;;;;;;;0.60;0.53;;;20.00;99.90;;;;;;20738725;28;20225;-69
2021/03/31 16:34:37;;;;;;;1.60;1.37;;;19.90;99.90;;;;;;20705378;28;20551;-67
2021/03/31 16:44:47;;;;;;;0.40;0.40;;;20.00;99.90;;;;;;20745185;28;20753;-70
2021/03/31 16:54:55;;;;;;;1.10;0.70;;;19.70;99.90;;;;;;20735693;28;20190;-69
2021/03/31 17:05:04;;;;;;;0.47;0.40;;;19.40;99.90;;;;;;20735980;28;20389;-70
2021/03/31 17:15:14;;;;;;;0.60;0.47;;;19.70;99.90;;;;;;20719468;28;20217;-67
2021/03/31 17:25:21;;;;;;;2.13;0.93;;;19.50;99.90;;;;;;20734414;28;20229;-69
2021/03/31 17:35:30;;;;;;;0.50;0.50;;;19.10;99.90;;;;;;20735748;28;20213;-70
2021/03/31 17:45:37;;;;;;;0.83;0.83;;;18.90;99.90;;;;;;20732622;28;20667;-70
2021/03/31 17:55:48;;;;;;;0.93;0.63;;;17.60;99.90;;;;;;20715959;28;20198;-69
2021/03/31 18:05:58;;;;;;;0.47;0.40;;;17.00;99.90;;;;;;20715237;28;21020;-69
2021/03/31 18:16:08;;;;;;;1.33;1.23;;;16.40;99.90;;;;;;20731687;28;20218;-70
2021/03/31 18:26:16;;;;;;;1.07;0.63;;;16.10;99.90;;;;;;20728186;28;20237;-70
2021/03/31 18:36:27;;;;;;;5.73;1.17;;;15.40;99.90;;;;;;20726184;28;20202;-70
2021/03/31 18:46:34;;;;;;;3.33;0.90;;;15.20;99.90;;;;;;20695508;28;20767;-70
2021/03/31 18:56:44;;;;;;;0.53;0.53;;;14.80;99.90;;;;;;20726864;28;20556;-70
2021/03/31 19:06:53;;;;;;;4.93;1.23;;;14.50;99.90;;;;;;20709879;28;20223;-72
2021/03/31 19:17:09;;;;;;;1.17;0.67;;;14.00;99.90;;;;;;20695106;28;20198;-70
2021/03/31 19:27:17;;;;;;;0.60;0.60;;;13.70;99.90;;;;;;20703309;28;20215;-71
2021/03/31 19:37:28;;;;;;;0.40;0.33;;;13.40;99.90;;;;;;20776490;28;20198;-70
2021/03/31 19:47:38;;;;;;;1.27;1.20;;;13.10;99.90;;;;;;20734093;28;20222;-69
2021/03/31 19:57:47;;;;;;;0.30;0.30;;;12.90;99.90;;;;;;20742389;28;20229;-70
2021/03/31 20:07:57;;;;;;;0.40;0.40;;;12.70;99.90;;;;;;20738648;28;20686;-71
2021/03/31 20:18:06;;;;;;;10.60;0.50;;;12.70;99.90;;;;;;20739225;28;20198;-71
2021/03/31 20:28:14;;;;;;;0.90;0.77;;;12.60;99.90;;;;;;20739189;28;20591;-71
2021/03/31 20:38:23;;;;;;;0.37;0.37;;;12.50;99.90;;;;;;20736443;28;20191;-71
2021/03/31 20:48:30;;;;;;;0.83;0.47;;;12.20;99.90;;;;;;20718863;28;20218;-71
2021/03/31 20:58:40;;;;;;;1.03;0.77;;;12.20;99.90;;;;;;20735091;28;20219;-70
2021/03/31 21:08:47;;;;;;;0.30;0.30;;;11.90;99.90;;;;;;20715782;28;20242;-70
2021/03/31 21:18:56;;;;;;;2.77;1.30;;;11.90;99.90;;;;;;20719967;28;20226;-69
2021/03/31 21:29:04;;;;;;;0.20;0.20;;;11.90;99.90;;;;;;20738291;28;20310;-70
2021/03/31 21:39:13;;;;;;;1.80;0.50;;;12.00;99.90;;;;;;20743380;28;20205;-70
2021/03/31 21:49:20;;;;;;;0.57;0.57;;;12.00;99.90;;;;;;20717206;28;20503;-71
2021/03/31 21:59:24;;;;;;;0.37;0.37;;;12.20;99.90;;;;;;20735104;28;20278;-70
2021/03/31 22:09:27;;;;;;;1.13;0.97;;;12.10;99.90;;;;;;20749372;28;20223;-71
2021/03/31 22:19:32;;;;;;;0.67;0.67;;;12.00;99.90;;;;;;20735791;28;20229;-71
2021/03/31 22:29:34;;;;;;;1.47;0.70;;;11.90;99.90;;;;;;20710186;28;20261;-72
2021/03/31 22:39:38;;;;;;;3.63;1.40;;;11.90;99.90;;;;;;20731654;28;20191;-73
2021/03/31 22:49:41;;;;;;;1.60;1.07;;;11.80;99.90;;;;;;20726889;28;20222;-71
2021/03/31 22:59:47;;;;;;;0.20;0.10;;;11.60;99.90;;;;;;20725866;28;20265;-72
2021/03/31 23:09:49;;;;;;;4.43;1.13;;;11.40;99.90;;;;;;20709621;28;20324;-71
2021/03/31 23:19:52;;;;;;;0.20;0.20;;;11.30;99.90;;;;;;20724066;28;20191;-71
2021/03/31 23:29:55;;;;;;;0.20;0.20;;;11.20;99.90;;;;;;20725667;28;20227;-71
2021/03/31 23:39:59;;;;;;;0.30;0.30;;;11.30;99.90;;;;;;20706643;28;20195;-71
2021/03/31 23:50:01;;;;;;;0.20;0.20;;;11.30;99.90;;;;;;20710033;28;20214;-74
